KAKR/AKR METAR and TAF weather

Enter ICAO airport designator
Station Type Date Time Source
KAKR METAR 2021/09/27 06:54 UTC NOAA

KAKR 270654Z AUTO 20007KT 10SM CLR 15/08 A2999 RMK AO2 SLP150 T01500078


Station Type Date Time Source
KAKR Decoded METAR 2021/09/27 06:54 UTC NOAA

AKRON FULTON INTERNATIONAL, OH, United States (KAKR) 41-02N 081-28W 363M
Sep 27, 2021 - 02:54 AM EDT / 2021.09.27 0654 UTC
Wind: from the SSW (200 degrees) at 8 MPH (7 KT):0
Visibility: 10 mile(s):0
Sky conditions: clear
Temperature: 59.0 F (15.0 C)
Dew Point: 46.0 F (7.8 C)
Relative Humidity: 62%
Pressure (altimeter): 29.99 in. Hg (1015 hPa)
ob: KAKR 270654Z AUTO 20007KT 10SM CLR 15/08 A2999 RMK AO2 SLP150 T01500078
cycle: 7

Station Type Date Time Source
KAKR TAF UTC NOAA

Error!

Example: see airport list